Mona Airport

Jump to: basic info | weather | comments

Related pages: nearby airports | nearby navaids

Basic information (top)

Location: lon 18.075300, lat -67.931000, elev 1 ft / 0 m msl
Status: small_airport

Weather (top)

Current conditions for Punta Cana International Airport 38nm (71km) NW (rec'd 2014/04/18 23:00Z):

MDPC 182300Z 11006KT 9999 BKN025 SCT350 27/22 Q1016

Airport forecast for Punta Cana International Airport 38nm (71km) NW (rec'd 2014/04/18 06:58Z):

TAF MDPC 180400Z 1806/1906 11010KT 9999 FEW018 SCT080 PROB30 1806/1812 8000 -RA SCT017 BKN070

Latest comments (top)

No comments yet for Mona Airport

More... (top)

See also NOTAMs and nearby airports and navaids, or visit the Mona Airport page at the main OurAirports website..